^^
Meteo Knjazevac Station Historical Data
Daily Summary for December 20, 2021 Units:  Metric    English   Both
Daily Weekly Monthly Yearly Custom
  High: Low: Average:
Temperature: 5 °C 1.6 °C 3.3 °C
Dew Point: 2.9 °C -1.7 °C 0.8 °C
Humidity: 91% 72% 84%
Wind Speed: 24.1km/h 0km/h 9.8km/h
Wind Gust: 35.4km/h - -
Wind- - WSW
Pressure: 1021.2 hPa 1014.8 hPa -
Precipitation: 0 mm    
Historical Graphs
 
 
Tabular Data for December 20, 2021
Time Temperature Dew Point Pressure Wind Wind Speed Wind Gust Humidity Rainfall Rate (Hourly) solar Conditions
00:00 3.5 °C 1.7 °C 1015.1 hPa WSW 14.5 km/h 22.5 km/h 88% 0 mm 0 W/m2
00:10 3.6 °C 1.8 °C 1015.1 hPa SW 12.9 km/h 22.5 km/h 88% 0 mm 0 W/m2
00:20 3.5 °C 1.7 °C 1015.1 hPa SW 14.5 km/h 20.9 km/h 88% 0 mm 0 W/m2
00:30 3.5 °C 1.7 °C 1015.1 hPa WSW 9.7 km/h 19.3 km/h 88% 0 mm 0 W/m2
00:40 3.4 °C 1.6 °C 1015.1 hPa WSW 9.7 km/h 20.9 km/h 88% 0 mm 0 W/m2
00:50 3.4 °C 1.6 °C 1015.1 hPa SW 11.3 km/h 16.1 km/h 88% 0 mm 0 W/m2
01:00 3.5 °C 1.7 °C 1014.8 hPa SW 12.9 km/h 20.9 km/h 88% 0 mm 0 W/m2
01:10 3.5 °C 1.7 °C 1015.1 hPa WSW 14.5 km/h 24.1 km/h 88% 0 mm 0 W/m2
01:20 3.6 °C 1.8 °C 1015.1 hPa WSW 12.9 km/h 22.5 km/h 88% 0 mm 0 W/m2
01:30 3.7 °C 1.9 °C 1015.1 hPa WSW 11.3 km/h 24.1 km/h 88% 0 mm 0 W/m2
01:40 3.6 °C 1.8 °C 1015.1 hPa WSW 9.7 km/h 14.5 km/h 88% 0 mm 0 W/m2
01:50 3.6 °C 1.8 °C 1015.5 hPa WSW 9.7 km/h 16.1 km/h 88% 0 mm 0 W/m2
02:00 3.5 °C 1.7 °C 1015.5 hPa WSW 9.7 km/h 16.1 km/h 88% 0 mm 0 W/m2
02:10 3.5 °C 1.7 °C 1015.5 hPa WSW 11.3 km/h 14.5 km/h 88% 0 mm 0 W/m2
02:20 3.5 °C 1.7 °C 1015.5 hPa WSW 8 km/h 14.5 km/h 88% 0 mm 0 W/m2
02:30 3.5 °C 1.7 °C 1015.5 hPa WSW 11.3 km/h 17.7 km/h 88% 0 mm 0 W/m2
02:40 3.5 °C 1.7 °C 1015.5 hPa WSW 11.3 km/h 16.1 km/h 88% 0 mm 0 W/m2
02:50 3.4 °C 1.8 °C 1015.1 hPa WSW 8 km/h 16.1 km/h 89% 0 mm 0 W/m2
03:00 3.4 °C 1.8 °C 1015.1 hPa SW 9.7 km/h 14.5 km/h 89% 0 mm 0 W/m2
03:10 3.4 °C 1.9 °C 1015.1 hPa WSW 9.7 km/h 14.5 km/h 90% 0 mm 0 W/m2
03:20 3.5 °C 2 °C 1015.1 hPa WSW 9.7 km/h 19.3 km/h 90% 0 mm 0 W/m2
03:30 3.6 °C 1.9 °C 1014.8 hPa WSW 9.7 km/h 16.1 km/h 89% 0 mm 0 W/m2
03:40 3.7 °C 2.1 °C 1014.8 hPa WSW 11.3 km/h 20.9 km/h 89% 0 mm 0 W/m2
03:50 3.6 °C 1.9 °C 1014.8 hPa SW 12.9 km/h 22.5 km/h 89% 0 mm 0 W/m2
04:00 3.8 °C 2.2 °C 1015.1 hPa WSW 16.1 km/h 27.4 km/h 89% 0 mm 0 W/m2
04:10 3.8 °C 2.3 °C 1015.1 hPa WSW 11.3 km/h 29 km/h 90% 0 mm 0 W/m2
04:20 3.8 °C 2.3 °C 1015.1 hPa WSW 11.3 km/h 19.3 km/h 90% 0 mm 0 W/m2
04:30 3.7 °C 2.2 °C 1015.1 hPa WSW 9.7 km/h 19.3 km/h 90% 0 mm 0 W/m2
04:40 3.7 °C 2.2 °C 1015.1 hPa WSW 11.3 km/h 19.3 km/h 90% 0 mm 0 W/m2
04:50 3.8 °C 2.3 °C 1015.1 hPa WSW 9.7 km/h 20.9 km/h 90% 0 mm 0 W/m2
05:00 3.7 °C 2.2 °C 1015.1 hPa WSW 9.7 km/h 19.3 km/h 90% 0 mm 0 W/m2
05:10 3.7 °C 2.2 °C 1015.1 hPa WSW 11.3 km/h 16.1 km/h 90% 0 mm 0 W/m2
05:20 3.7 °C 2.2 °C 1015.5 hPa WSW 11.3 km/h 19.3 km/h 90% 0 mm 0 W/m2
05:30 3.6 °C 2.1 °C 1015.5 hPa WSW 9.7 km/h 19.3 km/h 90% 0 mm 0 W/m2
05:40 3.6 °C 2.1 °C 1015.5 hPa WSW 11.3 km/h 20.9 km/h 90% 0 mm 0 W/m2
05:50 3.7 °C 2.2 °C 1015.5 hPa West 12.9 km/h 19.3 km/h 90% 0 mm 0 W/m2
06:00 3.6 °C 2.3 °C 1015.5 hPa WSW 4.8 km/h 14.5 km/h 91% 0 mm 0 W/m2
06:10 3.6 °C 2.3 °C 1015.8 hPa WSW 8 km/h 12.9 km/h 91% 0 mm 0 W/m2
06:20 3.5 °C 2.2 °C 1015.8 hPa West 9.7 km/h 19.3 km/h 91% 0 mm 0 W/m2
06:30 3.5 °C 2.2 °C 1015.8 hPa West 8 km/h 16.1 km/h 91% 0 mm 0 W/m2
06:40 3.5 °C 2.2 °C 1015.8 hPa West 11.3 km/h 19.3 km/h 91% 0 mm 0 W/m2
06:50 3.5 °C 2.2 °C 1015.8 hPa West 14.5 km/h 22.5 km/h 91% 0 mm 0 W/m2
07:00 3.5 °C 2 °C 1015.8 hPa WSW 16.1 km/h 25.7 km/h 90% 0 mm 3 W/m2
07:10 3.6 °C 2.1 °C 1015.8 hPa WSW 14.5 km/h 27.4 km/h 90% 0 mm 7 W/m2
07:20 3.5 °C 2 °C 1016.1 hPa West 11.3 km/h 22.5 km/h 90% 0 mm 10 W/m2
07:30 3.6 °C 1.9 °C 1016.1 hPa West 16.1 km/h 24.1 km/h 89% 0 mm 19 W/m2
07:40 3.5 °C 1.9 °C 1016.5 hPa West 12.9 km/h 20.9 km/h 89% 0 mm 25 W/m2
07:50 3.5 °C 1.8 °C 1016.1 hPa West 12.9 km/h 24.1 km/h 89% 0 mm 31 W/m2
08:00 3.4 °C 1.8 °C 1016.1 hPa West 14.5 km/h 25.7 km/h 89% 0 mm 35 W/m2
08:10 3.3 °C 1.8 °C 1016.1 hPa West 12.9 km/h 22.5 km/h 90% 0 mm 40 W/m2
08:20 3.3 °C 1.8 °C 1016.1 hPa West 12.9 km/h 22.5 km/h 90% 0 mm 50 W/m2
08:30 3.5 °C 2 °C 1016.5 hPa West 19.3 km/h 35.4 km/h 90% 0 mm 50 W/m2
08:40 3.6 °C 2.1 °C 1016.1 hPa West 24.1 km/h 35.4 km/h 90% 0 mm 82 W/m2
08:50 3.8 °C 2.2 °C 1016.5 hPa West 16.1 km/h 35.4 km/h 89% 0 mm 90 W/m2
09:00 4.2 °C 2.4 °C 1016.5 hPa West 16.1 km/h 27.4 km/h 88% 0 mm 186 W/m2
09:10 4.7 °C 2.9 °C 1016.5 hPa WSW 12.9 km/h 29 km/h 88% 0 mm 203 W/m2
09:20 5 °C 2.7 °C 1016.8 hPa West 14.5 km/h 25.7 km/h 85% 0 mm 112 W/m2
09:30 4.7 °C 2.4 °C 1016.8 hPa WNW 9.7 km/h 17.7 km/h 85% 0 mm 83 W/m2
09:40 4.6 °C 2.4 °C 1016.8 hPa WNW 8 km/h 19.3 km/h 86% 0 mm 100 W/m2
09:50 4.6 °C 2.3 °C 1016.8 hPa West 11.3 km/h 22.5 km/h 85% 0 mm 99 W/m2
10:00 4.5 °C 2.2 °C 1017.2 hPa WNW 11.3 km/h 22.5 km/h 85% 0 mm 78 W/m2
10:10 4.5 °C 2.2 °C 1017.2 hPa West 11.3 km/h 24.1 km/h 85% 0 mm 71 W/m2
10:20 4.5 °C 2.2 °C 1017.2 hPa West 8 km/h 19.3 km/h 85% 0 mm 95 W/m2
10:30 4.5 °C 2.2 °C 1017.2 hPa WSW 8 km/h 17.7 km/h 85% 0 mm 118 W/m2
10:40 4.5 °C 2.3 °C 1016.8 hPa West 8 km/h 24.1 km/h 86% 0 mm 126 W/m2
10:50 4.5 °C 2.2 °C 1017.2 hPa West 11.3 km/h 22.5 km/h 85% 0 mm 112 W/m2
11:00 4.5 °C 2.2 °C 1017.2 hPa West 14.5 km/h 24.1 km/h 85% 0 mm 102 W/m2
11:10 4.4 °C 2.1 °C 1017.2 hPa West 11.3 km/h 27.4 km/h 85% 0 mm 131 W/m2
11:20 4.4 °C 2.3 °C 1017.2 hPa WSW 9.7 km/h 14.5 km/h 86% 0 mm 99 W/m2
11:30 4.5 °C 2.2 °C 1017.2 hPa WSW 12.9 km/h 25.7 km/h 85% 0 mm 257 W/m2
11:40 4.6 °C 2.3 °C 1016.8 hPa WSW 11.3 km/h 29 km/h 85% 0 mm 143 W/m2
11:50 4.7 °C 2.4 °C 1016.8 hPa WSW 11.3 km/h 22.5 km/h 85% 0 mm 211 W/m2
12:00 4.7 °C 2.4 °C 1016.8 hPa WSW 11.3 km/h 20.9 km/h 85% 0 mm 170 W/m2
12:10 4.7 °C 2.6 °C 1017.2 hPa WSW 12.9 km/h 22.5 km/h 86% 0 mm 196 W/m2
12:20 4.6 °C 2.1 °C 1017.2 hPa WSW 14.5 km/h 24.1 km/h 84% 0 mm 50 W/m2
12:30 4.4 °C 1.9 °C 1017.2 hPa WSW 16.1 km/h 25.7 km/h 84% 0 mm 39 W/m2
12:40 4 °C 1.9 °C 1017.2 hPa West 14.5 km/h 27.4 km/h 86% 0 mm 60 W/m2
12:50 3.8 °C 2.2 °C 1017.2 hPa WSW 11.3 km/h 17.7 km/h 89% 0 mm 73 W/m2
13:00 3.9 °C 2.4 °C 1017.2 hPa WSW 8 km/h 14.5 km/h 90% 0 mm 231 W/m2
13:10 4.3 °C 2.5 °C 1017.5 hPa WSW 4.8 km/h 12.9 km/h 88% 0 mm 115 W/m2
13:20 4.3 °C 1.3 °C 1017.5 hPa West 11.3 km/h 22.5 km/h 81% 0 mm 109 W/m2
13:30 4.3 °C 0.8 °C 1017.8 hPa WNW 16.1 km/h 25.7 km/h 78% 0 mm 96 W/m2
13:40 4.3 °C 0.8 °C 1017.8 hPa WNW 8 km/h 17.7 km/h 78% 0 mm 199 W/m2
13:50 4.8 °C 0.4 °C 1017.8 hPa WNW 9.7 km/h 19.3 km/h 73% 0 mm 190 W/m2
14:00 5 °C 0.4 °C 1017.8 hPa West 12.9 km/h 20.9 km/h 72% 0 mm 97 W/m2
14:10 4.9 °C 0.4 °C 1017.8 hPa West 12.9 km/h 22.5 km/h 73% 0 mm 70 W/m2
14:20 4.6 °C 0.3 °C 1017.8 hPa West 14.5 km/h 32.2 km/h 74% 0 mm 104 W/m2
14:30 4.4 °C 0.3 °C 1017.8 hPa West 12.9 km/h 27.4 km/h 75% 0 mm 36 W/m2
14:40 4.1 °C 0.1 °C 1017.8 hPa West 12.9 km/h 27.4 km/h 75% 0 mm 40 W/m2
14:50 4 °C 0.3 °C 1018.2 hPa West 9.7 km/h 16.1 km/h 77% 0 mm 27 W/m2
15:00 3.8 °C 0.3 °C 1018.2 hPa West 12.9 km/h 19.3 km/h 78% 0 mm 15 W/m2
15:10 3.8 °C 0.3 °C 1018.5 hPa WNW 3.2 km/h 19.3 km/h 78% 0 mm 17 W/m2
15:20 3.7 °C 0.2 °C 1018.5 hPa WNW 3.2 km/h 14.5 km/h 78% 0 mm 27 W/m2
15:30 3.6 °C 0.1 °C 1018.5 hPa WSW 9.7 km/h 12.9 km/h 78% 0 mm 13 W/m2
15:40 3.4 °C 0.1 °C 1018.5 hPa WSW 4.8 km/h 12.9 km/h 79% 0 mm 15 W/m2
15:50 3.2 °C -0.3 °C 1018.5 hPa West 4.8 km/h 16.1 km/h 78% 0 mm 8 W/m2
16:00 3 °C -0.4 °C 1018.8 hPa West 4.8 km/h 19.3 km/h 78% 0 mm 0 W/m2
16:10 2.8 °C -0.7 °C 1018.8 hPa WSW 3.2 km/h 16.1 km/h 78% 0 mm 0 W/m2
16:20 2.6 °C -0.8 °C 1018.8 hPa SW 3.2 km/h 9.7 km/h 78% 0 mm 0 W/m2
16:30 2.5 °C -0.8 °C 1019.2 hPa WSW 1.6 km/h 6.4 km/h 79% 0 mm 0 W/m2
16:40 2.3 °C -0.9 °C 1019.2 hPa NW 3.2 km/h 8 km/h 79% 0 mm 0 W/m2
16:50 2.1 °C -1.2 °C 1019.2 hPa WSW 3.2 km/h 8 km/h 79% 0 mm 0 W/m2
17:00 2 °C -1.3 °C 1019.5 hPa Calm   11.3 km/h 79% 0 mm 0 W/m2
17:10 1.9 °C -1.4 °C 1019.5 hPa West 1.6 km/h 11.3 km/h 79% 0 mm 0 W/m2
17:20 1.7 °C -1.4 °C 1019.9 hPa WSW 4.8 km/h 12.9 km/h 80% 0 mm 0 W/m2
17:30 1.6 °C -1.5 °C 1019.9 hPa West 3.2 km/h 11.3 km/h 80% 0 mm 0 W/m2
17:40 1.6 °C -1.5 °C 1019.5 hPa WSW 9.7 km/h 12.9 km/h 80% 0 mm 0 W/m2
17:50 1.7 °C -1.4 °C 1019.9 hPa WSW 8 km/h 17.7 km/h 80% 0 mm 0 W/m2
18:00 1.7 °C -1.4 °C 1019.9 hPa WSW 3.2 km/h 11.3 km/h 80% 0 mm 0 W/m2
18:10 1.8 °C -1.3 °C 1019.9 hPa SW 8 km/h 12.9 km/h 80% 0 mm 0 W/m2
18:20 1.8 °C -1.3 °C 1019.5 hPa SW 9.7 km/h 11.3 km/h 80% 0 mm 0 W/m2
18:30 1.9 °C -1.2 °C 1019.9 hPa WSW 4.8 km/h 12.9 km/h 80% 0 mm 0 W/m2
18:40 2 °C -1.3 °C 1019.9 hPa WSW 4.8 km/h 11.3 km/h 79% 0 mm 0 W/m2
18:50 2 °C -1.3 °C 1019.9 hPa SW 4.8 km/h 11.3 km/h 79% 0 mm 0 W/m2
19:00 2 °C -1.3 °C 1020.2 hPa SW 3.2 km/h 12.9 km/h 79% 0 mm 0 W/m2
19:10 2.1 °C -1.2 °C 1020.2 hPa WSW 11.3 km/h 14.5 km/h 79% 0 mm 0 W/m2
19:20 2.2 °C -1.1 °C 1020.2 hPa WSW 4.8 km/h 11.3 km/h 79% 0 mm 0 W/m2
19:30 2.2 °C -1.1 °C 1020.2 hPa SW 1.6 km/h 9.7 km/h 79% 0 mm 0 W/m2
19:40 2.2 °C -1.1 °C 1020.2 hPa SW 9.7 km/h 11.3 km/h 79% 0 mm 0 W/m2
19:50 2.1 °C -1.2 °C 1020.2 hPa WSW 9.7 km/h 12.9 km/h 79% 0 mm 0 W/m2
20:00 2.1 °C -1 °C 1020.2 hPa WSW 8 km/h 12.9 km/h 80% 0 mm 0 W/m2
20:10 2.1 °C -1 °C 1020.2 hPa WSW 4.8 km/h 9.7 km/h 80% 0 mm 0 W/m2
20:20 2.1 °C -1 °C 1020.5 hPa WSW 4.8 km/h 12.9 km/h 80% 0 mm 0 W/m2
20:30 2.1 °C -1 °C 1020.5 hPa WSW 9.7 km/h 12.9 km/h 80% 0 mm 0 W/m2
20:40 2.1 °C -1.2 °C 1020.5 hPa WSW 8 km/h 14.5 km/h 79% 0 mm 0 W/m2
20:50 2.2 °C -1.1 °C 1020.5 hPa WSW 3.2 km/h 11.3 km/h 79% 0 mm 0 W/m2
21:00 2.2 °C -1.1 °C 1020.5 hPa West 9.7 km/h 16.1 km/h 79% 0 mm 0 W/m2
21:10 2.2 °C -1.1 °C 1020.5 hPa West 4.8 km/h 16.1 km/h 79% 0 mm 0 W/m2
21:20 2.1 °C -1.2 °C 1020.5 hPa West 8 km/h 14.5 km/h 79% 0 mm 0 W/m2
21:30 2.1 °C -1.2 °C 1020.9 hPa WSW 8 km/h 12.9 km/h 79% 0 mm 0 W/m2
21:40 2 °C -1.3 °C 1020.9 hPa WSW 9.7 km/h 12.9 km/h 79% 0 mm 0 W/m2
21:50 2 °C -1.3 °C 1020.9 hPa WSW 4.8 km/h 14.5 km/h 79% 0 mm 0 W/m2
22:00 2 °C -1.3 °C 1020.5 hPa WSW 4.8 km/h 12.9 km/h 79% 0 mm 0 W/m2
22:10 1.9 °C -1.3 °C 1020.9 hPa West 4.8 km/h 12.9 km/h 79% 0 mm 0 W/m2
22:20 1.8 °C -1.4 °C 1020.9 hPa WSW 4.8 km/h 8 km/h 79% 0 mm 0 W/m2
22:30 1.8 °C -1.7 °C 1020.9 hPa WSW 9.7 km/h 14.5 km/h 78% 0 mm 0 W/m2
22:40 1.7 °C -1.7 °C 1020.9 hPa WSW 8 km/h 17.7 km/h 78% 0 mm 0 W/m2
22:50 1.7 °C -1.6 °C 1021.2 hPa West 11.3 km/h 17.7 km/h 79% 0 mm 0 W/m2
23:00 1.7 °C -1.4 °C 1021.2 hPa WSW 9.7 km/h 17.7 km/h 80% 0 mm 0 W/m2
23:10 1.7 °C -1.4 °C 1021.2 hPa WSW 11.3 km/h 20.9 km/h 80% 0 mm 0 W/m2
23:20 1.7 °C -1.4 °C 1021.2 hPa WSW 14.5 km/h 20.9 km/h 80% 0 mm 0 W/m2
23:30 1.7 °C -1.4 °C 1021.2 hPa West 9.7 km/h 17.7 km/h 80% 0 mm 0 W/m2
23:40 1.8 °C -1.3 °C 1021.2 hPa WSW 9.7 km/h 20.9 km/h 80% 0 mm 0 W/m2
23:50 1.8 °C -1.3 °C 1021.2 hPa WSW 9.7 km/h 17.7 km/h 80% 0 mm 0 W/m2
Knjazevac, Serbia
Compliments of Weather Underground - 2 mb